createdAt,value
2019-02-21T00:02:44.374Z,100.00
2019-02-21T00:05:49.512Z,100.00
2019-02-21T00:08:54.747Z,100.00
2019-02-21T00:11:59.929Z,99.75
2019-02-21T00:15:05.399Z,99.77
2019-02-21T00:18:11.608Z,99.65
2019-02-21T00:21:16.774Z,98.77
2019-02-21T00:24:21.937Z,98.09
2019-02-21T00:27:27.090Z,97.86
2019-02-21T00:30:35.307Z,97.66
2019-02-21T00:33:39.055Z,97.51
2019-02-21T00:36:44.214Z,97.35
2019-02-21T00:39:49.327Z,97.30
2019-02-21T00:42:54.481Z,97.33
2019-02-21T00:45:59.653Z,97.37
2019-02-21T00:49:04.791Z,97.30
2019-02-21T00:52:09.931Z,97.23
2019-02-21T00:55:15.051Z,97.50
2019-02-21T00:58:20.199Z,97.75
2019-02-21T01:01:25.533Z,97.80
2019-02-21T01:04:30.697Z,97.91
2019-02-21T01:07:36.932Z,97.96
2019-02-21T01:10:42.113Z,98.06
2019-02-21T01:13:47.423Z,98.19
2019-02-21T01:16:52.481Z,98.31
2019-02-21T01:19:57.650Z,98.52
2019-02-21T01:23:02.844Z,98.54
2019-02-21T01:26:08.083Z,98.64
2019-02-21T01:29:13.222Z,98.88
2019-02-21T01:32:18.352Z,99.14
2019-02-21T01:35:23.470Z,99.32
2019-02-21T01:38:28.661Z,99.47
2019-02-21T01:41:33.898Z,99.74
2019-02-21T01:44:39.116Z,99.82
2019-02-21T01:47:44.287Z,99.83
2019-02-21T01:50:49.414Z,100.00
2019-02-21T01:53:54.549Z,100.00
2019-02-21T01:56:59.802Z,100.00
2019-02-21T02:00:05.831Z,100.00
2019-02-21T02:03:11.092Z,100.00
2019-02-21T02:06:16.319Z,100.00
2019-02-21T02:09:21.935Z,100.00
2019-02-21T02:12:27.100Z,100.00
2019-02-21T02:15:33.827Z,100.00
2019-02-21T02:18:39.332Z,100.00
2019-02-21T02:21:44.561Z,100.00
2019-02-21T02:24:49.730Z,100.00
2019-02-21T02:27:54.914Z,100.00
2019-02-21T02:31:00.103Z,100.00
2019-02-21T02:34:06.474Z,100.00
2019-02-21T02:37:11.625Z,100.00
2019-02-21T02:40:16.941Z,100.00
2019-02-21T02:43:22.219Z,100.00
2019-02-21T02:46:27.468Z,100.00
2019-02-21T02:49:32.640Z,100.00
2019-02-21T02:52:37.923Z,100.00
2019-02-21T02:55:43.081Z,100.00
2019-02-21T02:58:48.312Z,100.00
2019-02-21T03:01:54.575Z,100.00
2019-02-21T03:04:59.717Z,100.00
2019-02-21T03:08:04.913Z,100.00
2019-02-21T03:11:10.438Z,100.00
2019-02-21T03:14:15.669Z,100.00
2019-02-21T03:17:20.885Z,100.00
2019-02-21T03:20:26.069Z,100.00
2019-02-21T03:23:31.315Z,100.00
2019-02-21T03:26:36.577Z,100.00
2019-02-21T03:29:41.751Z,100.00
2019-02-21T03:32:46.896Z,100.00
2019-02-21T03:35:52.052Z,100.00
2019-02-21T03:38:57.273Z,100.00
2019-02-21T03:42:02.452Z,100.00
2019-02-21T03:45:08.876Z,100.00
2019-02-21T03:48:14.100Z,100.00
2019-02-21T03:51:19.320Z,100.00
2019-02-21T03:54:24.504Z,100.00
2019-02-21T03:57:31.158Z,100.00
2019-02-21T04:00:37.310Z,100.00
2019-02-21T04:03:42.562Z,100.00
2019-02-21T04:06:47.768Z,100.00
2019-02-21T04:09:52.949Z,100.00
2019-02-21T04:12:58.084Z,100.00
2019-02-21T04:16:03.326Z,100.00
2019-02-21T04:19:08.511Z,100.00
2019-02-21T04:22:13.698Z,100.00
2019-02-21T04:25:18.996Z,100.00
2019-02-21T04:28:24.178Z,100.00
2019-02-21T04:31:29.325Z,100.00
2019-02-21T04:34:34.448Z,99.50
2019-02-21T04:37:39.594Z,98.60
2019-02-21T04:40:44.814Z,98.51
2019-02-21T04:43:49.954Z,98.23
2019-02-21T04:46:55.258Z,98.13
2019-02-21T04:50:00.630Z,98.01
2019-02-21T04:53:06.091Z,97.61
2019-02-21T04:56:11.277Z,97.48
2019-02-21T04:59:16.392Z,97.36
2019-02-21T05:02:28.864Z,97.36
2019-02-21T05:05:28.516Z,97.15
2019-02-21T05:08:33.696Z,96.22
2019-02-21T05:11:38.796Z,95.07
2019-02-21T05:14:44.023Z,95.05
2019-02-21T05:17:49.186Z,95.64
2019-02-21T05:20:54.418Z,96.17
2019-02-21T05:23:59.555Z,96.35
2019-02-21T05:27:09.495Z,96.52
2019-02-21T05:30:18.589Z,96.54
2019-02-21T05:33:41.431Z,96.09
2019-02-21T05:37:02.727Z,95.84
2019-02-21T05:40:41.975Z,95.84
2019-02-21T05:43:58.643Z,95.92
2019-02-21T05:47:28.892Z,95.75
2019-02-21T05:50:56.070Z,96.03
2019-02-21T05:54:09.127Z,96.06
2019-02-21T05:57:23.818Z,95.97
2019-02-21T06:00:54.024Z,96.22
2019-02-21T06:04:04.738Z,96.42
2019-02-21T06:07:34.721Z,96.60
2019-02-21T06:10:51.568Z,96.93
2019-02-21T06:14:14.380Z,97.50
2019-02-21T06:17:41.301Z,97.96
2019-02-21T06:21:08.459Z,98.33
2019-02-21T06:24:35.336Z,98.82
2019-02-21T06:27:54.841Z,99.26
2019-02-21T06:31:03.119Z,99.60
2019-02-21T06:34:08.257Z,99.55
2019-02-21T06:37:13.416Z,99.71
2019-02-21T06:40:18.587Z,99.43
2019-02-21T06:43:23.744Z,99.48
2019-02-21T06:46:28.968Z,99.59
2019-02-21T06:49:34.086Z,99.45
2019-02-21T06:52:40.690Z,99.17
2019-02-21T06:55:45.979Z,98.68
2019-02-21T06:58:51.116Z,98.06
2019-02-21T07:01:56.256Z,97.47
2019-02-21T07:05:01.377Z,96.88
2019-02-21T07:08:08.838Z,96.67
2019-02-21T07:11:14.162Z,96.12
2019-02-21T07:14:26.538Z,95.78
2019-02-21T07:17:32.648Z,95.58
2019-02-21T07:20:39.736Z,95.87
2019-02-21T07:23:44.711Z,95.86
2019-02-21T07:26:49.890Z,95.77
2019-02-21T07:29:55.349Z,95.68
2019-02-21T07:33:00.509Z,95.20
2019-02-21T07:36:05.782Z,94.50
2019-02-21T07:39:17.172Z,93.09
2019-02-21T07:42:17.747Z,92.76
2019-02-21T07:45:22.899Z,92.29
2019-02-21T07:48:27.989Z,91.75
2019-02-21T07:51:35.841Z,90.02
2019-02-21T07:54:39.984Z,90.29
2019-02-21T07:57:45.213Z,90.38
2019-02-21T08:00:50.394Z,90.17
2019-02-21T08:03:55.546Z,90.55
2019-02-21T08:07:00.689Z,90.03
2019-02-21T08:10:06.067Z,89.96
2019-02-21T08:13:11.250Z,89.99
2019-02-21T08:16:17.306Z,90.22
2019-02-21T08:19:22.390Z,89.92
2019-02-21T08:22:27.557Z,90.56
2019-02-21T08:25:32.666Z,89.96
2019-02-21T08:28:37.879Z,89.40
2019-02-21T08:31:43.104Z,89.64
2019-02-21T08:34:50.570Z,88.87
2019-02-21T08:37:55.709Z,89.02
2019-02-21T08:41:00.892Z,86.93
2019-02-21T08:44:06.053Z,86.52
2019-02-21T08:47:14.286Z,84.66
2019-02-21T08:50:22.101Z,83.67
2019-02-21T08:53:28.127Z,81.67
2019-02-21T08:56:33.187Z,79.05
2019-02-21T08:59:38.335Z,77.19
2019-02-21T09:02:43.458Z,77.89
2019-02-21T09:05:48.564Z,79.03
2019-02-21T09:08:53.844Z,77.30
2019-02-21T09:11:58.998Z,74.36
2019-02-21T09:15:09.562Z,76.60
2019-02-21T09:18:16.344Z,76.38
2019-02-21T09:21:21.455Z,77.99
2019-02-21T09:24:38.039Z,77.36
2019-02-21T09:27:34.489Z,77.08
2019-02-21T09:30:39.631Z,76.78
2019-02-21T09:33:45.857Z,75.47
2019-02-21T09:36:50.963Z,75.49
2019-02-21T09:39:56.097Z,75.14
2019-02-21T09:43:01.374Z,74.84
2019-02-21T09:46:06.725Z,73.59
2019-02-21T09:49:11.918Z,73.28
2019-02-21T09:52:17.099Z,74.21
2019-02-21T09:55:22.350Z,73.17
2019-02-21T09:58:27.472Z,73.37
2019-02-21T10:01:32.679Z,73.16
2019-02-21T10:04:38.095Z,74.05
2019-02-21T10:07:43.314Z,72.38
2019-02-21T10:10:48.403Z,73.34
2019-02-21T10:13:53.544Z,72.34
2019-02-21T10:16:58.703Z,73.83
2019-02-21T10:20:04.294Z,72.37
2019-02-21T10:23:09.722Z,70.68
2019-02-21T10:26:14.849Z,70.64
2019-02-21T10:29:20.471Z,71.60
2019-02-21T10:32:25.640Z,71.54
2019-02-21T10:35:30.857Z,71.80
2019-02-21T10:38:36.059Z,71.50
2019-02-21T10:41:41.223Z,71.69
2019-02-21T10:44:46.396Z,72.13
2019-02-21T10:47:51.538Z,71.12
2019-02-21T10:50:56.818Z,71.95
2019-02-21T10:54:02.110Z,71.33
2019-02-21T10:57:07.185Z,68.05
2019-02-21T11:00:21.357Z,70.32
2019-02-21T11:03:26.613Z,69.88
2019-02-21T11:06:31.852Z,69.27
2019-02-21T11:09:37.034Z,70.33
2019-02-21T11:12:42.247Z,70.58
2019-02-21T11:15:47.370Z,71.01
2019-02-21T11:18:52.492Z,71.11
2019-02-21T11:21:57.683Z,71.94
2019-02-21T11:25:02.856Z,70.20
2019-02-21T11:28:07.978Z,69.30
2019-02-21T11:31:13.065Z,69.60
2019-02-21T11:34:18.230Z,69.20
2019-02-21T11:37:23.417Z,70.37
2019-02-21T11:40:28.567Z,69.52
2019-02-21T11:43:34.723Z,70.16
2019-02-21T11:46:40.008Z,71.59
2019-02-21T11:49:45.236Z,71.64
2019-02-21T11:52:50.388Z,71.51
2019-02-21T11:55:55.532Z,69.37
2019-02-21T11:59:00.725Z,68.90
2019-02-21T12:02:05.904Z,68.55
2019-02-21T12:05:17.496Z,67.96
2019-02-21T12:08:18.157Z,67.36
2019-02-21T12:11:23.252Z,67.09
2019-02-21T12:14:28.442Z,67.04
2019-02-21T12:17:33.553Z,67.60
2019-02-21T12:20:38.712Z,67.38
2019-02-21T12:23:43.922Z,67.93
2019-02-21T12:26:49.157Z,68.11
2019-02-21T12:29:54.258Z,65.71
2019-02-21T12:32:59.431Z,64.67
2019-02-21T12:36:04.593Z,63.54
2019-02-21T12:39:09.751Z,60.91
2019-02-21T12:42:16.431Z,60.22
2019-02-21T12:45:21.703Z,59.90
2019-02-21T12:48:26.899Z,59.39
2019-02-21T12:51:32.050Z,59.26
2019-02-21T12:54:37.163Z,58.32
2019-02-21T12:57:42.340Z,57.39
2019-02-21T13:00:47.596Z,57.88
2019-02-21T13:03:52.750Z,58.12
2019-02-21T13:06:58.027Z,56.70
2019-02-21T13:10:03.220Z,56.60
2019-02-21T13:13:09.564Z,57.65
2019-02-21T13:16:14.724Z,55.72
2019-02-21T13:19:19.840Z,56.13
2019-02-21T13:22:24.958Z,56.02
2019-02-21T13:25:30.136Z,56.60
2019-02-21T13:28:35.369Z,57.64
2019-02-21T13:31:40.502Z,57.73
2019-02-21T13:34:45.682Z,57.86
2019-02-21T13:37:50.855Z,57.78
2019-02-21T13:40:56.002Z,56.90
2019-02-21T13:44:01.185Z,55.03
2019-02-21T13:47:06.520Z,54.97
2019-02-21T13:50:13.866Z,56.56
2019-02-21T13:53:19.016Z,56.58
2019-02-21T13:56:24.202Z,55.52
2019-02-21T13:59:29.455Z,56.64
2019-02-21T14:02:35.614Z,56.90
2019-02-21T14:05:40.808Z,57.67
2019-02-21T14:08:45.989Z,58.44
2019-02-21T14:11:51.177Z,57.89
2019-02-21T14:14:57.528Z,58.92
2019-02-21T14:18:02.808Z,58.63
2019-02-21T14:21:08.022Z,58.87
2019-02-21T14:24:13.260Z,58.77
2019-02-21T14:27:18.667Z,59.13
2019-02-21T14:30:23.812Z,59.50
2019-02-21T14:33:28.988Z,59.18
2019-02-21T14:36:34.130Z,59.90
2019-02-21T14:39:39.332Z,59.78
2019-02-21T14:42:44.472Z,58.72
2019-02-21T14:45:49.696Z,57.41
2019-02-21T14:48:54.875Z,57.45
2019-02-21T14:52:02.014Z,56.47
2019-02-21T14:55:08.597Z,55.71
2019-02-21T14:58:14.751Z,56.89
2019-02-21T15:01:19.904Z,57.54
2019-02-21T15:04:25.030Z,58.13
2019-02-21T15:07:30.201Z,57.85
2019-02-21T15:10:35.342Z,59.05
2019-02-21T15:13:40.533Z,57.86
2019-02-21T15:16:49.305Z,57.47
2019-02-21T15:19:56.123Z,58.09
2019-02-21T15:23:01.331Z,58.32
2019-02-21T15:26:06.645Z,57.95
2019-02-21T15:29:11.748Z,58.23
2019-02-21T15:32:17.020Z,58.46
2019-02-21T15:35:22.192Z,59.20
2019-02-21T15:38:27.359Z,59.63
2019-02-21T15:41:32.668Z,58.89
2019-02-21T15:44:37.809Z,60.11
2019-02-21T15:47:42.956Z,59.27
2019-02-21T15:50:48.110Z,58.64
2019-02-21T15:53:53.265Z,60.08
2019-02-21T15:56:58.482Z,60.80
2019-02-21T16:00:03.664Z,61.57
2019-02-21T16:03:10.167Z,60.52
2019-02-21T16:06:15.296Z,61.32
2019-02-21T16:09:20.533Z,61.79
2019-02-21T16:12:26.095Z,62.29
2019-02-21T16:15:31.375Z,63.05
2019-02-21T16:18:36.660Z,63.64
2019-02-21T16:21:41.910Z,63.96
2019-02-21T16:24:48.073Z,64.63
2019-02-21T16:27:55.226Z,64.26
2019-02-21T16:31:00.241Z,62.93
2019-02-21T16:34:05.385Z,64.42
2019-02-21T16:37:10.571Z,65.71
2019-02-21T16:40:15.733Z,66.80
2019-02-21T16:43:20.850Z,67.57
2019-02-21T16:46:26.016Z,67.42
2019-02-21T16:49:31.161Z,69.51
2019-02-21T16:52:36.898Z,69.64
2019-02-21T16:55:42.144Z,71.02
2019-02-21T16:58:47.374Z,71.95
2019-02-21T17:01:52.635Z,72.42
2019-02-21T17:04:57.866Z,72.50
2019-02-21T17:08:03.086Z,72.11
2019-02-21T17:11:08.296Z,72.45
2019-02-21T17:14:13.476Z,73.44
2019-02-21T17:17:19.946Z,74.12
2019-02-21T17:20:25.206Z,74.55
2019-02-21T17:23:30.347Z,75.47
2019-02-21T17:26:35.608Z,75.77
2019-02-21T17:29:40.813Z,76.36
2019-02-21T17:32:46.344Z,76.89
2019-02-21T17:35:51.521Z,77.28
2019-02-21T17:38:56.664Z,76.97
2019-02-21T17:42:02.578Z,76.70
2019-02-21T17:45:08.744Z,76.46
2019-02-21T17:48:13.975Z,75.60
2019-02-21T17:51:19.127Z,77.19
2019-02-21T17:54:25.937Z,77.17
2019-02-21T17:57:31.376Z,78.50
2019-02-21T18:00:37.538Z,79.06
2019-02-21T18:03:42.869Z,80.01
2019-02-21T18:06:48.107Z,80.71
2019-02-21T18:09:53.291Z,81.69
2019-02-21T18:12:58.460Z,81.97
2019-02-21T18:16:03.623Z,82.30
2019-02-21T18:19:08.804Z,82.13
2019-02-21T18:22:14.026Z,82.19
2019-02-21T18:25:23.087Z,82.40
2019-02-21T18:28:28.339Z,82.19
2019-02-21T18:31:32.728Z,82.13
2019-02-21T18:34:38.028Z,81.65
2019-02-21T18:37:47.323Z,82.66
2019-02-21T18:40:50.149Z,83.32
2019-02-21T18:43:55.757Z,83.62
2019-02-21T18:47:01.019Z,84.19
2019-02-21T18:50:06.700Z,85.18
2019-02-21T18:53:11.849Z,86.12
2019-02-21T18:56:17.117Z,86.87
2019-02-21T18:59:31.340Z,87.72
2019-02-21T19:02:29.126Z,88.05
2019-02-21T19:05:36.239Z,88.51
2019-02-21T19:08:41.215Z,88.12
2019-02-21T19:11:46.386Z,88.37
2019-02-21T19:14:51.718Z,88.35
2019-02-21T19:17:56.866Z,88.58
2019-02-21T19:21:02.100Z,88.80
2019-02-21T19:24:07.259Z,89.02
2019-02-21T19:27:12.445Z,89.29
2019-02-21T19:30:20.897Z,89.76
2019-02-21T19:33:26.143Z,89.53
2019-02-21T19:36:31.296Z,89.85
2019-02-21T19:39:36.497Z,89.88
2019-02-21T19:42:41.732Z,90.15
2019-02-21T19:45:47.014Z,90.08
2019-02-21T19:48:52.213Z,90.51
2019-02-21T19:51:57.536Z,90.24
2019-02-21T19:55:02.805Z,90.26
2019-02-21T19:58:08.035Z,91.09
2019-02-21T20:01:13.263Z,90.91
2019-02-21T20:04:18.396Z,91.05
2019-02-21T20:07:23.777Z,91.77
2019-02-21T20:10:31.332Z,91.92
2019-02-21T20:13:36.637Z,91.36
2019-02-21T20:16:41.958Z,91.25
2019-02-21T20:19:48.089Z,91.23
2019-02-21T20:22:53.350Z,90.96
2019-02-21T20:25:58.779Z,90.43
2019-02-21T20:29:03.964Z,90.58
2019-02-21T20:32:09.208Z,90.39
2019-02-21T20:35:15.163Z,89.92
2019-02-21T20:38:20.486Z,89.92
2019-02-21T20:41:25.712Z,90.31
2019-02-21T20:44:32.150Z,90.44
2019-02-21T20:47:37.416Z,90.46
2019-02-21T20:50:42.683Z,90.51
2019-02-21T20:53:48.949Z,90.74
2019-02-21T20:56:54.135Z,90.74
2019-02-21T21:00:00.416Z,90.46
2019-02-21T21:03:05.979Z,90.69
2019-02-21T21:06:11.210Z,90.98
2019-02-21T21:09:16.449Z,91.24
2019-02-21T21:12:21.706Z,91.42
2019-02-21T21:15:26.977Z,91.72
2019-02-21T21:18:32.131Z,92.04
2019-02-21T21:21:37.300Z,92.12
2019-02-21T21:24:42.526Z,92.61
2019-02-21T21:27:47.780Z,92.91
2019-02-21T21:30:52.989Z,93.05
2019-02-21T21:33:58.144Z,92.88
2019-02-21T21:37:03.361Z,93.23
2019-02-21T21:40:10.559Z,93.42
2019-02-21T21:43:15.814Z,93.44
2019-02-21T21:46:21.050Z,93.62
2019-02-21T21:49:26.229Z,93.54
2019-02-21T21:52:31.462Z,94.24
2019-02-21T21:55:36.671Z,94.59
2019-02-21T21:58:41.848Z,94.10
2019-02-21T22:01:50.118Z,93.54
2019-02-21T22:04:55.272Z,93.52
2019-02-21T22:08:00.419Z,93.74
2019-02-21T22:11:06.583Z,94.03
2019-02-21T22:14:11.780Z,94.04
2019-02-21T22:17:16.957Z,93.86
2019-02-21T22:20:22.177Z,92.22
2019-02-21T22:23:27.327Z,92.54
2019-02-21T22:26:32.575Z,93.54
2019-02-21T22:29:37.698Z,94.05
2019-02-21T22:32:42.973Z,94.29
2019-02-21T22:35:48.310Z,94.35
2019-02-21T22:38:53.364Z,94.06
2019-02-21T22:41:58.825Z,93.94
2019-02-21T22:45:05.763Z,93.84
2019-02-21T22:48:10.989Z,93.58
2019-02-21T22:51:16.145Z,93.46
2019-02-21T22:54:21.362Z,93.51
2019-02-21T22:57:26.639Z,93.52
2019-02-21T23:01:04.879Z,93.30
2019-02-21T23:04:44.108Z,93.10
2019-02-21T23:08:11.532Z,93.19
2019-02-21T23:11:16.687Z,93.53
2019-02-21T23:14:21.977Z,93.49
2019-02-21T23:17:27.237Z,93.74
2019-02-21T23:20:32.397Z,93.57
2019-02-21T23:23:37.629Z,93.75
2019-02-21T23:26:42.891Z,93.79
2019-02-21T23:29:48.127Z,93.29
2019-02-21T23:32:53.353Z,93.17
2019-02-21T23:35:58.527Z,92.91
2019-02-21T23:39:04.284Z,92.92
2019-02-21T23:42:11.043Z,92.69
2019-02-21T23:45:17.667Z,92.22
2019-02-21T23:48:22.822Z,92.61
2019-02-21T23:51:30.234Z,92.66
2019-02-21T23:54:35.486Z,92.71
2019-02-21T23:57:40.625Z,91.79
